Time;durP1;ratioP1;P1;durP2;ratioP2;P2;SDS_P1;SDS_P2;PMS_P1;PMS_P2;Temp;Humidity;BMP_temperature;BMP_pressure;BME280_temperature;BME280_humidity;BME280_pressure;Samples;Min_cycle;Max_cycle;Signal;HPM_P1;HPM_P2
2022/10/22 00:00:22;;;;;;;7.18;1.80;;;22.80;74.00;;;;;;4100388;28;20038;-48
2022/10/22 00:02:45;;;;;;;2.97;1.47;;;22.80;74.00;;;;;;4100813;28;20496;-46
2022/10/22 00:05:08;;;;;;;5.43;1.60;;;22.90;74.10;;;;;;4099265;28;20292;-47
2022/10/22 00:07:31;;;;;;;3.85;1.30;;;22.90;74.10;;;;;;4103827;28;20483;-45
2022/10/22 00:09:54;;;;;;;3.27;1.43;;;23.00;74.20;;;;;;4093150;28;20454;-46
2022/10/22 00:12:17;;;;;;;6.25;1.60;;;23.00;74.90;;;;;;4091235;28;20057;-46
2022/10/22 00:14:39;;;;;;;14.70;1.77;;;23.00;73.90;;;;;;4091494;28;20121;-46
2022/10/22 00:17:02;;;;;;;4.90;1.60;;;23.00;73.80;;;;;;4099637;28;20062;-45
2022/10/22 00:19:25;;;;;;;5.65;1.67;;;23.00;73.70;;;;;;4105619;28;20108;-48
2022/10/22 00:21:47;;;;;;;6.38;1.45;;;23.00;73.70;;;;;;4097938;28;20046;-48
2022/10/22 00:24:10;;;;;;;4.60;2.10;;;23.00;73.60;;;;;;4105483;28;20097;-47
2022/10/22 00:26:32;;;;;;;5.53;1.63;;;23.00;73.60;;;;;;4108582;28;20085;-48
2022/10/22 00:28:55;;;;;;;3.60;1.42;;;23.10;73.50;;;;;;4102239;28;20082;-46
2022/10/22 00:31:18;;;;;;;2.50;1.33;;;23.00;73.30;;;;;;4102742;28;20054;-48
2022/10/22 00:33:41;;;;;;;4.60;1.73;;;23.00;73.20;;;;;;4108583;28;20042;-49
2022/10/22 00:36:04;;;;;;;4.80;1.40;;;23.10;73.20;;;;;;4096235;28;20031;-48
2022/10/22 00:38:27;;;;;;;3.25;1.42;;;23.10;73.20;;;;;;4103434;28;20124;-46
2022/10/22 00:40:49;;;;;;;2.88;1.15;;;23.10;72.90;;;;;;4097812;28;20619;-50
2022/10/22 00:43:14;;;;;;;4.43;1.83;;;23.20;72.90;;;;;;4100274;28;20125;-45
2022/10/22 00:45:37;;;;;;;3.35;1.70;;;23.20;72.90;;;;;;4109206;28;20100;-51
2022/10/22 00:48:10;;;;;;;3.35;1.50;;;23.20;72.70;;;;;;4103041;28;20046;-48
2022/10/22 00:50:51;;;;;;;2.03;1.40;;;23.20;72.60;;;;;;4098291;28;20067;-46
2022/10/22 00:56:32;;;;;;;2.65;1.25;;;23.30;72.50;;;;;;4109587;28;20047;-48
2022/10/22 00:59:00;;;;;;;3.60;1.80;;;23.30;72.30;;;;;;4104050;28;20112;-53
2022/10/22 01:01:28;;;;;;;1.98;1.20;;;23.30;72.30;;;;;;4105657;28;20622;-51
2022/10/22 01:03:52;;;;;;;3.10;1.40;;;23.30;72.20;;;;;;4100082;28;20532;-49
2022/10/22 01:06:22;;;;;;;3.30;1.40;;;23.40;72.20;;;;;;4102643;28;20113;-48
2022/10/22 01:09:06;;;;;;;2.45;1.20;;;23.40;72.20;;;;;;4097338;28;20431;-47
2022/10/22 01:11:53;;;;;;;5.63;1.77;;;23.40;72.10;;;;;;4100937;28;20482;-48
2022/10/22 01:14:35;;;;;;;3.00;1.23;;;23.40;72.00;;;;;;4093803;28;20112;-49
2022/10/22 01:17:23;;;;;;;2.95;1.10;;;23.40;71.90;;;;;;4101072;28;20422;-46
2022/10/22 01:20:00;;;;;;;2.85;1.40;;;23.50;71.90;;;;;;4106431;28;20095;-49
2022/10/22 01:22:39;;;;;;;2.90;1.35;;;23.50;71.90;;;;;;4098272;28;20070;-46
2022/10/22 01:25:22;;;;;;;2.28;1.20;;;23.50;71.70;;;;;;4103978;28;20730;-45
2022/10/22 01:28:14;;;;;;;3.15;1.33;;;23.60;71.70;;;;;;4097166;28;20134;-47
2022/10/22 01:30:38;;;;;;;2.92;1.58;;;23.60;71.70;;;;;;4100875;28;20778;-46
2022/10/22 01:33:05;;;;;;;2.50;1.20;;;23.60;72.20;;;;;;4102069;28;20054;-46
2022/10/22 01:35:35;;;;;;;2.80;1.50;;;23.60;71.50;;;;;;4100748;28;20487;-49
2022/10/22 01:38:03;;;;;;;2.00;1.25;;;23.70;71.60;;;;;;4107403;28;20113;-47
2022/10/22 01:40:27;;;;;;;4.28;1.50;;;23.70;71.50;;;;;;4104574;28;20065;-47
2022/10/22 01:42:59;;;;;;;2.35;1.13;;;23.70;71.40;;;;;;4106298;28;20554;-48
2022/10/22 01:45:22;;;;;;;2.30;1.10;;;23.80;71.40;;;;;;4108719;28;20491;-46
2022/10/22 01:48:21;;;;;;;1.75;1.23;;;23.80;71.30;;;;;;4103717;28;20045;-48
2022/10/22 01:51:07;;;;;;;4.63;1.40;;;23.80;71.30;;;;;;4104072;28;20797;-48
2022/10/22 01:53:39;;;;;;;4.65;1.20;;;23.90;71.20;;;;;;4103976;28;20498;-48
2022/10/22 01:56:31;;;;;;;1.45;1.15;;;23.90;71.20;;;;;;4099154;28;20236;-48
2022/10/22 01:59:00;;;;;;;2.10;1.02;;;23.90;71.20;;;;;;4106181;28;20050;-46
2022/10/22 02:01:56;;;;;;;2.08;1.27;;;24.00;71.30;;;;;;4103618;28;20038;-47
2022/10/22 02:04:29;;;;;;;2.35;1.35;;;24.00;71.30;;;;;;4106194;28;20484;-48
2022/10/22 02:06:56;;;;;;;2.63;1.33;;;24.00;71.40;;;;;;4109204;28;20063;-47
2022/10/22 02:09:21;;;;;;;3.78;1.88;;;24.00;71.30;;;;;;4103256;28;20046;-46
2022/10/22 02:11:44;;;;;;;1.52;1.10;;;24.00;71.30;;;;;;4098601;28;20093;-47
2022/10/22 02:14:08;;;;;;;2.28;1.30;;;24.00;71.30;;;;;;4101332;28;20069;-48
2022/10/22 02:16:37;;;;;;;2.50;1.23;;;24.00;71.30;;;;;;4108978;28;20121;-45
2022/10/22 02:19:05;;;;;;;1.85;1.30;;;24.00;71.40;;;;;;4099444;28;20050;-45
2022/10/22 02:21:29;;;;;;;2.25;1.40;;;24.00;71.40;;;;;;4109541;28;20070;-46
2022/10/22 02:23:51;;;;;;;2.05;1.20;;;24.10;71.30;;;;;;4114300;28;20039;-48
2022/10/22 02:26:24;;;;;;;3.10;1.27;;;24.10;71.30;;;;;;4110872;28;20391;-48
2022/10/22 02:29:03;;;;;;;2.55;1.45;;;24.20;71.30;;;;;;4142515;22;20058;-43
2022/10/22 02:31:30;;;;;;;4.30;1.48;;;24.20;71.20;;;;;;4132679;28;20048;-42
2022/10/22 02:33:56;;;;;;;3.63;1.48;;;24.20;71.20;;;;;;4128950;28;20390;-43
2022/10/22 02:36:20;;;;;;;2.80;1.30;;;24.30;71.20;;;;;;4130882;28;20409;-44
2022/10/22 02:38:45;;;;;;;2.38;1.30;;;24.30;71.20;;;;;;4139213;28;20045;-45
2022/10/22 02:41:08;;;;;;;5.90;1.80;;;24.30;71.20;;;;;;4135572;28;20390;-47
2022/10/22 02:43:38;;;;;;;4.18;1.67;;;24.30;71.20;;;;;;4135479;28;20046;-42
2022/10/22 02:46:00;;;;;;;3.38;1.40;;;24.40;71.30;;;;;;4133505;28;20042;-42
2022/10/22 02:48:23;;;;;;;5.25;1.85;;;24.30;71.20;;;;;;4137750;28;20076;-43
2022/10/22 02:50:46;;;;;;;2.70;1.70;;;24.30;71.20;;;;;;4133002;28;20069;-42
2022/10/22 02:53:08;;;;;;;3.25;1.60;;;24.40;71.30;;;;;;4132950;28;20073;-41
2022/10/22 02:55:31;;;;;;;3.80;1.77;;;24.40;71.40;;;;;;4135884;28;20119;-42
2022/10/22 02:57:53;;;;;;;3.30;1.48;;;24.40;71.30;;;;;;4134419;28;20069;-43
2022/10/22 03:00:16;;;;;;;3.22;1.63;;;24.40;71.40;;;;;;4417294;22;20052;-47
2022/10/22 03:02:38;;;;;;;3.10;1.40;;;24.40;71.40;;;;;;4145472;28;20119;-48
2022/10/22 03:05:01;;;;;;;2.95;1.67;;;24.40;71.30;;;;;;4142069;28;20041;-47
2022/10/22 03:07:24;;;;;;;3.70;1.75;;;24.40;71.30;;;;;;4148808;28;20048;-47
2022/10/22 03:09:47;;;;;;;4.05;1.50;;;24.40;71.30;;;;;;4152147;28;20037;-51
2022/10/22 03:12:09;;;;;;;3.85;1.60;;;24.40;71.30;;;;;;4163219;28;20073;-46
2022/10/22 03:14:32;;;;;;;5.03;1.65;;;24.50;71.30;;;;;;4155485;28;20064;-48
2022/10/22 03:16:54;;;;;;;4.07;1.80;;;24.50;71.30;;;;;;4149691;28;20480;-48
2022/10/22 03:19:17;;;;;;;3.58;1.58;;;24.50;71.20;;;;;;4146105;28;20056;-45
2022/10/22 03:21:54;;;;;;;4.22;1.70;;;24.50;71.10;;;;;;4137572;28;20049;-48
2022/10/22 03:24:21;;;;;;;4.28;1.50;;;24.50;71.10;;;;;;4146556;28;21116;-48
2022/10/22 03:26:46;;;;;;;4.13;1.70;;;24.60;71.00;;;;;;4150032;28;20547;-47
2022/10/22 03:29:12;;;;;;;4.63;1.38;;;24.60;71.00;;;;;;4144108;28;20490;-47
2022/10/22 03:31:35;;;;;;;4.57;1.80;;;24.60;70.90;;;;;;4149195;28;20110;-46
2022/10/22 03:33:57;;;;;;;5.15;1.75;;;24.60;70.90;;;;;;4140691;28;20510;-49
2022/10/22 03:36:20;;;;;;;3.78;1.67;;;24.60;70.90;;;;;;4142373;28;20125;-46
2022/10/22 03:38:42;;;;;;;3.67;1.58;;;24.60;70.90;;;;;;4152263;28;20084;-47
2022/10/22 03:41:06;;;;;;;3.58;1.80;;;24.60;70.90;;;;;;4143059;28;20052;-51
2022/10/22 03:43:28;;;;;;;4.22;1.40;;;24.70;71.00;;;;;;4146806;28;20558;-47
2022/10/22 03:45:51;;;;;;;6.55;2.45;;;24.70;71.00;;;;;;4157991;28;20099;-46
2022/10/22 03:48:13;;;;;;;4.25;1.85;;;24.70;71.00;;;;;;4154049;28;20040;-45
2022/10/22 03:50:36;;;;;;;4.85;1.85;;;24.70;71.00;;;;;;4149332;28;20045;-48
2022/10/22 03:52:59;;;;;;;3.08;1.58;;;24.70;71.00;;;;;;4148769;28;20049;-46
2022/10/22 03:55:21;;;;;;;3.72;1.83;;;24.70;70.90;;;;;;4150118;28;20389;-48
2022/10/22 03:57:44;;;;;;;4.90;1.70;;;24.70;70.90;;;;;;4148035;28;20156;-46
2022/10/22 04:00:08;;;;;;;5.18;2.10;;;24.80;70.90;;;;;;4141894;28;20108;-48
2022/10/22 04:02:30;;;;;;;3.33;1.58;;;24.80;70.80;;;;;;4148757;28;20046;-48
2022/10/22 04:04:53;;;;;;;3.00;1.50;;;24.80;70.80;;;;;;4152887;28;20092;-47
2022/10/22 04:07:15;;;;;;;4.60;1.95;;;24.80;70.80;;;;;;4155838;28;20048;-47
2022/10/22 04:09:38;;;;;;;5.75;1.90;;;24.80;70.80;;;;;;4146812;28;20037;-50
2022/10/22 04:12:01;;;;;;;5.43;2.00;;;24.80;70.70;;;;;;4149847;28;20709;-47
2022/10/22 04:14:23;;;;;;;5.50;1.80;;;24.80;70.70;;;;;;4150748;28;20041;-46
2022/10/22 04:16:46;;;;;;;6.03;2.13;;;24.80;70.70;;;;;;4149873;28;20064;-46
2022/10/22 04:19:09;;;;;;;5.30;2.03;;;24.80;70.70;;;;;;4133566;28;20029;-46
2022/10/22 04:21:32;;;;;;;5.97;1.80;;;24.80;70.70;;;;;;4149585;28;20045;-49
2022/10/22 04:23:55;;;;;;;4.72;1.77;;;24.80;70.80;;;;;;4146555;28;20099;-46
2022/10/22 04:26:18;;;;;;;6.20;2.25;;;24.90;71.00;;;;;;4147776;28;20037;-47
2022/10/22 04:28:41;;;;;;;5.75;2.28;;;24.90;70.80;;;;;;4146520;28;20052;-49
2022/10/22 04:31:08;;;;;;;4.93;1.77;;;24.80;70.70;;;;;;4147481;28;20072;-46
2022/10/22 04:33:31;;;;;;;3.65;1.70;;;24.80;70.60;;;;;;4146359;28;20071;-45
2022/10/22 04:35:53;;;;;;;4.60;2.28;;;24.90;70.60;;;;;;4143917;28;20036;-46
2022/10/22 04:38:16;;;;;;;4.97;1.70;;;24.90;70.60;;;;;;4145726;28;20057;-47
2022/10/22 04:40:39;;;;;;;4.70;2.08;;;24.90;70.50;;;;;;4140094;28;20562;-50
2022/10/22 04:43:01;;;;;;;5.18;1.95;;;24.90;70.50;;;;;;4147362;28;20510;-48
2022/10/22 04:45:24;;;;;;;4.82;2.15;;;24.90;70.50;;;;;;4145923;28;20053;-45
2022/10/22 04:47:46;;;;;;;5.72;1.77;;;25.00;70.50;;;;;;4150660;28;20038;-49
2022/10/22 04:50:09;;;;;;;4.93;2.00;;;25.00;70.50;;;;;;4134087;28;20038;-46
2022/10/22 04:52:31;;;;;;;5.63;2.10;;;25.00;70.50;;;;;;4148791;28;20127;-46
2022/10/22 04:54:54;;;;;;;5.32;1.90;;;25.00;70.40;;;;;;4149219;28;20038;-48
2022/10/22 04:57:16;;;;;;;6.43;2.33;;;25.10;70.30;;;;;;4142681;28;20691;-46
2022/10/22 04:59:39;;;;;;;5.25;2.30;;;25.10;70.20;;;;;;4143569;28;20079;-46
2022/10/22 05:02:02;;;;;;;5.40;2.10;;;25.20;70.00;;;;;;4145035;28;20401;-48
2022/10/22 05:04:24;;;;;;;5.85;2.20;;;25.20;70.00;;;;;;4149754;28;20068;-50
2022/10/22 05:06:47;;;;;;;5.60;1.75;;;25.30;69.80;;;;;;4145628;28;20041;-45
2022/10/22 05:09:19;;;;;;;5.63;2.00;;;25.40;69.70;;;;;;4152734;28;20595;-49
2022/10/22 05:11:47;;;;;;;5.80;2.20;;;25.40;69.60;;;;;;4150459;28;20060;-45
2022/10/22 05:14:11;;;;;;;4.93;2.03;;;25.50;69.50;;;;;;4148714;28;20048;-47
2022/10/22 05:16:34;;;;;;;8.38;2.50;;;25.50;69.30;;;;;;4142708;28;20653;-46
2022/10/22 05:18:59;;;;;;;4.78;2.20;;;25.60;69.20;;;;;;4147020;28;20041;-45
2022/10/22 05:21:22;;;;;;;6.78;2.55;;;25.60;69.00;;;;;;4151178;28;20504;-46
2022/10/22 05:23:47;;;;;;;5.78;1.98;;;25.70;69.10;;;;;;4148840;28;20076;-49
2022/10/22 05:26:11;;;;;;;6.35;2.03;;;25.70;69.00;;;;;;4149215;28;20345;-46
2022/10/22 05:28:35;;;;;;;7.05;2.33;;;25.70;68.90;;;;;;4151540;28;20038;-48
2022/10/22 05:30:58;;;;;;;7.22;2.60;;;25.80;69.00;;;;;;4143373;28;20041;-47
2022/10/22 05:33:21;;;;;;;5.88;2.10;;;25.80;68.80;;;;;;4150391;28;20076;-48
2022/10/22 05:35:44;;;;;;;5.38;2.00;;;25.80;68.70;;;;;;4141429;28;20440;-45
2022/10/22 05:38:06;;;;;;;4.95;1.98;;;25.80;68.60;;;;;;4141456;28;20566;-49
2022/10/22 05:40:29;;;;;;;5.00;2.03;;;25.90;68.60;;;;;;4148160;28;20419;-46
2022/10/22 05:42:51;;;;;;;7.53;2.70;;;25.90;68.50;;;;;;4148286;28;20083;-46
2022/10/22 05:45:14;;;;;;;6.40;2.20;;;25.90;68.60;;;;;;4145505;28;20112;-45
2022/10/22 05:47:36;;;;;;;6.22;2.05;;;25.90;68.50;;;;;;4149035;28;20049;-46
2022/10/22 05:49:59;;;;;;;5.85;2.20;;;25.90;68.50;;;;;;4144551;28;20397;-47
2022/10/22 05:52:22;;;;;;;6.80;2.33;;;25.90;68.60;;;;;;4154193;28;20616;-48
2022/10/22 05:54:45;;;;;;;6.37;2.30;;;25.90;68.60;;;;;;4145678;28;20428;-48
2022/10/22 05:57:07;;;;;;;6.45;2.00;;;25.90;68.70;;;;;;4145411;28;20055;-46
2022/10/22 05:59:30;;;;;;;14.27;2.35;;;25.90;68.70;;;;;;4139720;28;20041;-46
2022/10/22 06:01:52;;;;;;;6.32;2.47;;;25.90;68.70;;;;;;4143850;28;20049;-50
2022/10/22 06:04:16;;;;;;;5.97;2.17;;;25.90;69.40;;;;;;4149334;28;20679;-48
2022/10/22 06:06:48;;;;;;;4.28;2.22;;;25.80;68.70;;;;;;4153135;28;20045;-49
2022/10/22 06:09:19;;;;;;;6.13;2.15;;;25.90;68.90;;;;;;4146535;28;20043;-47
2022/10/22 06:11:42;;;;;;;4.88;2.10;;;25.80;68.80;;;;;;4145601;28;20048;-47
2022/10/22 06:14:04;;;;;;;4.20;1.95;;;25.80;68.80;;;;;;4148192;28;20044;-48
2022/10/22 06:16:31;;;;;;;5.38;2.15;;;25.80;68.90;;;;;;4131420;28;20104;-45
2022/10/22 06:18:54;;;;;;;4.00;1.70;;;25.80;68.90;;;;;;4150039;28;20041;-44
2022/10/22 06:21:17;;;;;;;4.22;2.10;;;25.80;68.80;;;;;;4150103;28;20038;-45
2022/10/22 06:23:40;;;;;;;5.03;2.03;;;25.80;68.80;;;;;;4146384;28;20054;-46
2022/10/22 06:26:03;;;;;;;5.22;2.15;;;25.80;68.90;;;;;;4127646;28;20105;-48
2022/10/22 06:28:26;;;;;;;5.70;2.10;;;25.80;68.80;;;;;;4147228;28;20565;-48
2022/10/22 06:30:49;;;;;;;4.65;2.13;;;25.80;68.90;;;;;;4143167;28;20030;-44
2022/10/22 06:33:11;;;;;;;4.85;1.92;;;25.80;68.90;;;;;;4147665;28;20045;-46
2022/10/22 06:35:34;;;;;;;7.60;2.22;;;25.80;68.90;;;;;;4146403;28;20076;-45
2022/10/22 06:37:56;;;;;;;5.72;2.20;;;25.80;68.90;;;;;;4145190;28;20037;-47
2022/10/22 06:40:19;;;;;;;6.35;2.42;;;25.80;69.00;;;;;;4131428;28;20515;-45
2022/10/22 06:42:42;;;;;;;5.03;2.03;;;25.80;69.10;;;;;;4142305;28;20503;-45
2022/10/22 06:45:05;;;;;;;5.15;1.90;;;25.80;69.10;;;;;;4143029;28;20046;-46
2022/10/22 06:47:30;;;;;;;5.88;2.15;;;25.80;69.10;;;;;;4146420;28;20041;-46
2022/10/22 06:49:52;;;;;;;5.93;2.15;;;25.70;69.00;;;;;;4130490;28;20034;-45
2022/10/22 06:52:15;;;;;;;5.35;1.75;;;25.70;69.00;;;;;;4141616;28;20056;-48
2022/10/22 06:54:39;;;;;;;3.97;2.00;;;25.70;69.00;;;;;;4144268;28;20112;-44
2022/10/22 06:57:01;;;;;;;5.97;2.40;;;25.70;69.10;;;;;;4144414;28;20108;-47
2022/10/22 06:59:24;;;;;;;6.55;2.33;;;25.70;69.10;;;;;;4140246;28;20411;-46
2022/10/22 07:01:47;;;;;;;4.70;1.83;;;25.70;69.20;;;;;;4142176;28;20144;-46
2022/10/22 07:04:10;;;;;;;5.35;1.95;;;25.70;69.20;;;;;;4140061;28;20499;-49
2022/10/22 07:06:32;;;;;;;5.22;2.05;;;25.70;69.20;;;;;;4148914;28;20041;-44
2022/10/22 07:08:57;;;;;;;6.05;2.72;;;25.70;69.30;;;;;;4150215;28;20033;-46
2022/10/22 07:11:22;;;;;;;5.82;2.20;;;25.60;69.20;;;;;;4152248;28;20049;-50
2022/10/22 07:13:45;;;;;;;5.05;2.20;;;25.60;69.20;;;;;;4149925;28;20045;-46
2022/10/22 07:16:09;;;;;;;4.85;2.28;;;25.60;69.20;;;;;;4143160;28;20083;-47
2022/10/22 07:18:32;;;;;;;6.05;1.88;;;25.70;69.30;;;;;;4156342;28;20045;-45
2022/10/22 07:20:54;;;;;;;6.40;2.10;;;25.60;69.30;;;;;;4155091;28;20033;-47
2022/10/22 07:23:17;;;;;;;5.50;2.28;;;25.60;69.30;;;;;;4148629;28;20029;-44
2022/10/22 07:25:41;;;;;;;3.75;1.77;;;25.60;69.30;;;;;;4140287;28;20041;-45
2022/10/22 07:28:04;;;;;;;4.72;2.20;;;25.60;69.30;;;;;;4141760;28;20112;-47
2022/10/22 07:30:26;;;;;;;7.80;2.20;;;25.60;69.40;;;;;;4146470;28;20069;-47
2022/10/22 07:32:49;;;;;;;5.28;2.10;;;25.60;69.40;;;;;;4144811;28;20045;-47
2022/10/22 07:35:11;;;;;;;7.00;2.28;;;25.60;69.40;;;;;;4145779;28;20037;-46
2022/10/22 07:37:34;;;;;;;6.70;2.05;;;25.50;69.40;;;;;;4153708;28;20522;-47
2022/10/22 07:39:56;;;;;;;4.10;1.88;;;25.50;69.40;;;;;;4144710;28;20127;-44
2022/10/22 07:42:19;;;;;;;5.43;2.17;;;25.50;69.40;;;;;;4151973;28;20045;-46
2022/10/22 07:44:41;;;;;;;6.60;1.90;;;25.50;69.50;;;;;;4151773;28;20072;-48
2022/10/22 07:47:04;;;;;;;4.30;2.00;;;25.50;69.50;;;;;;4139059;28;20045;-47
2022/10/22 07:49:26;;;;;;;5.18;2.10;;;25.50;69.50;;;;;;4150168;28;20041;-47
2022/10/22 07:51:49;;;;;;;5.30;2.10;;;25.40;69.50;;;;;;4155260;28;20052;-46
2022/10/22 07:54:12;;;;;;;6.53;2.33;;;25.40;69.60;;;;;;4155921;28;20047;-47
2022/10/22 07:56:34;;;;;;;4.10;2.08;;;25.40;69.70;;;;;;4143989;28;20079;-45
2022/10/22 07:58:57;;;;;;;5.63;2.15;;;25.40;69.70;;;;;;4140847;28;20599;-45
2022/10/22 08:01:19;;;;;;;5.15;2.08;;;25.40;69.80;;;;;;4142705;28;20752;-46
2022/10/22 08:03:42;;;;;;;5.40;2.25;;;25.40;69.80;;;;;;4142787;28;20787;-46
2022/10/22 08:06:04;;;;;;;4.55;2.17;;;25.40;69.90;;;;;;4138887;28;20501;-49
2022/10/22 08:08:28;;;;;;;5.07;2.13;;;25.40;69.90;;;;;;4145982;28;20071;-46
2022/10/22 08:10:54;;;;;;;;;;;25.30;69.90;;;;;;4149638;28;20041;-46
2022/10/22 08:13:16;;;;;;;4.63;1.98;;;25.30;69.90;;;;;;4149438;28;19921;-47
2022/10/22 08:15:39;;;;;;;6.97;2.30;;;25.30;69.90;;;;;;4149975;28;20079;-47
2022/10/22 08:18:02;;;;;;;4.35;2.00;;;25.30;70.00;;;;;;4155106;28;20045;-45
2022/10/22 08:20:24;;;;;;;5.65;2.42;;;25.30;69.90;;;;;;4152462;28;20389;-45
2022/10/22 08:22:47;;;;;;;4.72;2.05;;;25.30;70.60;;;;;;4156268;28;20610;-46
2022/10/22 08:25:10;;;;;;;4.70;2.17;;;25.20;70.50;;;;;;4150874;28;20049;-45
2022/10/22 08:27:32;;;;;;;6.10;2.10;;;25.20;69.90;;;;;;4150449;28;20080;-45
2022/10/22 08:29:55;;;;;;;5.30;2.20;;;25.30;70.00;;;;;;4139483;28;20049;-50
2022/10/22 08:32:18;;;;;;;6.22;2.50;;;25.30;70.10;;;;;;4153454;28;20053;-45
2022/10/22 08:34:40;;;;;;;6.22;2.47;;;25.20;69.90;;;;;;4152500;28;20048;-46
2022/10/22 08:37:04;;;;;;;5.57;2.47;;;25.20;70.00;;;;;;4149304;28;20080;-47
2022/10/22 08:39:27;;;;;;;6.40;2.78;;;25.20;70.00;;;;;;4146508;28;20042;-49
2022/10/22 08:42:04;;;;;;;5.57;2.28;;;25.20;70.10;;;;;;4146229;28;20050;-47
2022/10/22 08:44:35;;;;;;;7.53;2.10;;;25.10;70.00;;;;;;4146417;28;20106;-46
2022/10/22 08:47:15;;;;;;;4.20;2.03;;;25.10;70.00;;;;;;4147787;28;20040;-45
2022/10/22 08:49:40;;;;;;;7.00;2.67;;;25.10;70.00;;;;;;4147277;28;20045;-46
2022/10/22 08:52:04;;;;;;;6.70;2.13;;;25.10;70.00;;;;;;4143593;28;20049;-45
2022/10/22 08:54:51;;;;;;;4.25;2.30;;;25.10;70.00;;;;;;4147067;28;20038;-45
2022/10/22 08:57:44;;;;;;;5.88;2.35;;;25.10;70.00;;;;;;4155034;28;20041;-47
2022/10/22 09:00:13;;;;;;;7.03;2.20;;;25.10;70.00;;;;;;4148336;28;20437;-48
2022/10/22 09:03:09;;;;;;;5.32;2.28;;;25.10;70.00;;;;;;4144830;28;20049;-50
2022/10/22 09:05:46;;;;;;;5.40;2.30;;;25.10;70.00;;;;;;4145574;28;20617;-47
2022/10/22 09:08:14;;;;;;;5.55;2.55;;;25.10;70.10;;;;;;4147707;28;20558;-46
2022/10/22 09:10:40;;;;;;;5.43;1.90;;;25.10;70.10;;;;;;4146237;28;20076;-48
2022/10/22 09:13:03;;;;;;;9.50;2.50;;;25.00;70.00;;;;;;4148950;28;20566;-47
2022/10/22 09:15:26;;;;;;;4.83;2.10;;;25.00;70.00;;;;;;4144259;28;20033;-48
2022/10/22 09:18:16;;;;;;;4.70;2.57;;;25.00;70.00;;;;;;4147890;28;20042;-50
2022/10/22 09:21:09;;;;;;;5.43;2.20;;;25.00;70.10;;;;;;4143652;28;20275;-49
2022/10/22 09:23:32;;;;;;;5.40;2.13;;;25.00;70.10;;;;;;4136287;28;20034;-45
2022/10/22 09:25:56;;;;;;;7.35;2.60;;;25.00;70.10;;;;;;4146838;28;20037;-47
2022/10/22 09:28:19;;;;;;;6.13;2.28;;;25.00;70.10;;;;;;4142094;28;20048;-46
2022/10/22 09:30:42;;;;;;;5.00;2.47;;;24.90;70.00;;;;;;4144639;28;20050;-46
2022/10/22 09:33:07;;;;;;;4.77;2.60;;;24.90;70.10;;;;;;4151966;28;20128;-46
2022/10/22 09:35:34;;;;;;;6.65;2.40;;;24.90;70.10;;;;;;4151011;28;20052;-48
2022/10/22 09:37:57;;;;;;;7.45;2.55;;;24.90;70.10;;;;;;4153435;28;20041;-48
2022/10/22 09:40:21;;;;;;;4.18;2.15;;;24.90;70.10;;;;;;4154550;28;20431;-46
2022/10/22 09:42:45;;;;;;;5.90;2.25;;;24.90;70.10;;;;;;4145632;28;20040;-45
2022/10/22 09:45:24;;;;;;;6.07;2.50;;;24.90;70.10;;;;;;4144175;28;20436;-47
2022/10/22 09:47:47;;;;;;;6.75;2.55;;;24.90;70.10;;;;;;4151737;28;20041;-45
2022/10/22 09:50:21;;;;;;;4.97;2.33;;;24.90;70.10;;;;;;4145564;28;20135;-45
2022/10/22 09:52:43;;;;;;;6.43;2.47;;;24.90;70.20;;;;;;4155086;28;20112;-46
2022/10/22 09:55:17;;;;;;;7.80;2.55;;;24.80;70.10;;;;;;4147468;28;20409;-48
2022/10/22 09:57:39;;;;;;;;;;;24.80;70.10;;;;;;4146530;28;20064;-46
2022/10/22 10:00:02;;;;;;;8.55;2.35;;;24.80;70.10;;;;;;4148424;28;20334;-45
2022/10/22 10:02:28;;;;;;;4.95;2.30;;;24.80;70.20;;;;;;4147942;28;20397;-45
2022/10/22 10:05:01;;;;;;;5.47;2.40;;;24.80;70.20;;;;;;4153620;28;20036;-44
2022/10/22 10:07:26;;;;;;;5.57;2.35;;;24.80;70.20;;;;;;4144586;28;20044;-44
2022/10/22 10:09:50;;;;;;;5.68;2.42;;;24.80;70.30;;;;;;4158884;28;20087;-47
2022/10/22 10:12:28;;;;;;;6.25;2.60;;;24.80;70.30;;;;;;4156468;28;20397;-46
2022/10/22 10:15:01;;;;;;;4.93;2.25;;;24.80;70.40;;;;;;4145969;28;20048;-50
2022/10/22 10:17:36;;;;;;;5.63;2.53;;;24.80;70.40;;;;;;4152689;28;20043;-45
2022/10/22 10:20:20;;;;;;;6.65;2.42;;;24.70;70.30;;;;;;4156764;28;20045;-49
2022/10/22 10:23:14;;;;;;;4.95;2.10;;;24.80;70.30;;;;;;4159692;28;20037;-44
2022/10/22 10:25:52;;;;;;;5.22;2.35;;;24.70;70.30;;;;;;4142252;28;20033;-49
2022/10/22 10:28:42;;;;;;;4.45;2.05;;;24.70;70.40;;;;;;4149684;28;20037;-46
2022/10/22 10:31:28;;;;;;;5.78;2.30;;;24.70;70.40;;;;;;4158628;28;20075;-48
2022/10/22 10:34:27;;;;;;;4.70;2.05;;;24.70;70.50;;;;;;4148565;28;20093;-47
2022/10/22 10:37:19;;;;;;;6.95;2.40;;;24.70;70.40;;;;;;4148862;28;20049;-46
2022/10/22 10:39:58;;;;;;;5.38;2.70;;;24.70;70.50;;;;;;4144065;28;20056;-45
2022/10/22 10:42:42;;;;;;;6.10;2.47;;;24.60;70.40;;;;;;4150105;28;20378;-46
2022/10/22 10:45:08;;;;;;;4.88;2.15;;;24.60;70.50;;;;;;4152213;28;20482;-45
2022/10/22 10:47:48;;;;;;;6.43;2.15;;;24.60;70.50;;;;;;4143944;28;20041;-45
2022/10/22 10:50:20;;;;;;;4.97;2.65;;;24.60;70.50;;;;;;4145622;28;20041;-46
2022/10/22 10:53:02;;;;;;;5.80;2.53;;;24.60;70.60;;;;;;4145905;28;20046;-45
2022/10/22 10:55:36;;;;;;;5.78;2.22;;;24.60;70.60;;;;;;4144837;28;20130;-45
2022/10/22 10:58:18;;;;;;;;;;;24.60;70.60;;;;;;4154392;28;20140;-49
2022/10/22 11:00:55;;;;;;;5.38;2.40;;;24.60;70.70;;;;;;4155878;28;19922;-46
2022/10/22 11:03:52;;;;;;;5.50;2.53;;;24.60;70.70;;;;;;4151517;28;20064;-48
2022/10/22 11:06:18;;;;;;;4.45;2.17;;;24.60;70.60;;;;;;4153902;28;20147;-44
2022/10/22 11:08:59;;;;;;;4.63;2.13;;;24.60;70.60;;;;;;4149524;28;20041;-49
2022/10/22 11:11:41;;;;;;;6.00;2.50;;;24.60;70.70;;;;;;4140355;28;20128;-44
2022/10/22 11:14:27;;;;;;;5.75;2.40;;;24.60;70.70;;;;;;4141586;28;20124;-44
2022/10/22 11:16:58;;;;;;;5.22;2.17;;;24.60;70.90;;;;;;4146219;28;20033;-44
2022/10/22 11:19:36;;;;;;;3.63;1.83;;;24.60;71.20;;;;;;4147249;28;20691;-44
2022/10/22 11:22:31;;;;;;;5.45;1.55;;;24.50;71.40;;;;;;4146780;28;20481;-44
2022/10/22 11:25:03;;;;;;;3.55;1.80;;;24.50;71.60;;;;;;4146593;28;20045;-43
2022/10/22 11:27:36;;;;;;;5.80;1.52;;;24.50;72.00;;;;;;4148792;28;20033;-44
2022/10/22 11:30:22;;;;;;;3.53;1.52;;;24.50;72.10;;;;;;4150221;28;20041;-44
2022/10/22 11:32:58;;;;;;;2.95;1.00;;;24.60;72.30;;;;;;4153568;28;20045;-43
2022/10/22 11:35:30;;;;;;;1.85;0.68;;;24.60;72.40;;;;;;4135344;28;20117;-44
2022/10/22 11:37:55;;;;;;;5.03;0.90;;;24.60;72.40;;;;;;4151092;28;20086;-48
2022/10/22 11:40:23;;;;;;;3.97;0.80;;;24.60;72.50;;;;;;4148864;28;20497;-51
2022/10/22 11:42:58;;;;;;;2.05;0.70;;;24.60;72.30;;;;;;4147488;28;20442;-48
2022/10/22 11:45:23;;;;;;;3.35;1.20;;;24.60;72.40;;;;;;4149823;28;20049;-44
2022/10/22 11:48:06;;;;;;;3.08;1.45;;;24.60;72.10;;;;;;4147116;28;20377;-45
2022/10/22 11:50:51;;;;;;;4.97;2.10;;;24.60;71.60;;;;;;4147847;28;20050;-63
2022/10/22 11:53:14;;;;;;;3.15;1.42;;;24.60;71.70;;;;;;4150334;28;20371;-48
2022/10/22 11:55:48;;;;;;;6.38;1.30;;;24.60;71.90;;;;;;4142163;28;20037;-46
2022/10/22 11:58:33;;;;;;;4.78;1.23;;;24.70;71.90;;;;;;4146129;28;20497;-48
2022/10/22 12:00:56;;;;;;;;;;;24.70;72.00;;;;;;4131016;28;20132;-45
2022/10/22 12:03:23;;;;;;;3.28;1.00;;;24.70;72.20;;;;;;4142748;28;19924;-47
2022/10/22 12:06:01;;;;;;;2.40;0.77;;;24.80;72.00;;;;;;4146748;28;20697;-46
2022/10/22 12:08:25;;;;;;;2.67;0.90;;;24.80;71.90;;;;;;4145797;28;20408;-45
2022/10/22 12:10:55;;;;;;;1.80;0.70;;;24.80;71.90;;;;;;4144904;28;20044;-45
2022/10/22 12:13:48;;;;;;;2.05;0.82;;;24.80;72.00;;;;;;4141846;28;20054;-45
2022/10/22 12:16:13;;;;;;;3.38;1.58;;;24.80;71.70;;;;;;4121165;28;20527;-45
2022/10/22 12:18:43;;;;;;;6.88;2.38;;;24.70;71.00;;;;;;4149506;28;20112;-55
2022/10/22 12:21:09;;;;;;;5.40;2.22;;;24.80;70.80;;;;;;4145441;28;20046;-45
2022/10/22 12:23:34;;;;;;;3.60;1.90;;;24.80;70.60;;;;;;4151724;28;20118;-50
2022/10/22 12:25:57;;;;;;;5.47;1.92;;;24.70;70.50;;;;;;4151421;28;20092;-49
2022/10/22 12:28:20;;;;;;;3.72;1.58;;;24.70;70.50;;;;;;4145928;28;20061;-47
2022/10/22 12:30:42;;;;;;;6.95;2.13;;;24.70;70.40;;;;;;4147007;28;20037;-49
2022/10/22 12:33:07;;;;;;;4.50;1.80;;;24.70;71.00;;;;;;4145246;28;20565;-51
2022/10/22 12:35:34;;;;;;;11.07;2.08;;;24.70;70.30;;;;;;4143203;28;20563;-46
2022/10/22 12:38:00;;;;;;;6.53;1.85;;;24.60;70.70;;;;;;4145345;28;20193;-48
2022/10/22 12:40:23;;;;;;;7.78;1.65;;;24.60;71.00;;;;;;4148222;28;20464;-48
2022/10/22 12:42:54;;;;;;;5.90;1.30;;;24.60;71.10;;;;;;4143027;28;20490;-48
2022/10/22 12:45:17;;;;;;;5.82;1.42;;;24.60;71.30;;;;;;4144308;28;20076;-48
2022/10/22 12:47:39;;;;;;;5.17;1.33;;;24.60;71.60;;;;;;4147163;28;20034;-48
2022/10/22 12:50:04;;;;;;;2.97;0.93;;;24.60;71.80;;;;;;4135715;28;20040;-49
2022/10/22 12:52:26;;;;;;;6.25;1.27;;;24.60;72.10;;;;;;4146863;28;20049;-48